createdAt,value
2023-02-19T00:00:52.653Z,55.38
2023-02-19T00:01:52.635Z,56.05
2023-02-19T00:02:52.606Z,56.01
2023-02-19T00:03:52.629Z,55.53
2023-02-19T00:04:52.627Z,56.16
2023-02-19T00:05:52.578Z,55.60
2023-02-19T00:06:52.614Z,55.82
2023-02-19T00:07:52.537Z,55.64
2023-02-19T00:08:52.545Z,55.67
2023-02-19T00:09:52.507Z,55.60
2023-02-19T00:10:52.542Z,55.75
2023-02-19T00:11:52.498Z,54.91
2023-02-19T00:12:52.496Z,55.34
2023-02-19T00:13:52.515Z,55.38
2023-02-19T00:14:52.466Z,54.58
2023-02-19T00:15:52.444Z,55.31
2023-02-19T00:16:52.461Z,54.76
2023-02-19T00:17:52.443Z,54.37
2023-02-19T00:18:52.397Z,54.62
2023-02-19T00:19:52.393Z,54.37
2023-02-19T00:20:52.402Z,54.34
2023-02-19T00:21:52.353Z,54.58
2023-02-19T00:22:52.356Z,55.02
2023-02-19T00:23:52.353Z,55.05
2023-02-19T00:24:52.321Z,54.44
2023-02-19T00:25:52.297Z,54.27
2023-02-19T00:26:52.316Z,54.87
2023-02-19T00:27:52.299Z,54.66
2023-02-19T00:28:52.301Z,55.09
2023-02-19T00:29:52.253Z,55.12
2023-02-19T00:30:52.259Z,55.42
2023-02-19T00:31:52.405Z,54.16
2023-02-19T00:32:52.219Z,54.44
2023-02-19T00:33:52.209Z,54.16
2023-02-19T00:34:52.214Z,54.69
2023-02-19T00:35:52.187Z,54.34
2023-02-19T00:36:52.158Z,54.87
2023-02-19T00:37:52.169Z,55.09
2023-02-19T00:38:52.155Z,55.02
2023-02-19T00:39:52.163Z,54.66
2023-02-19T00:40:52.136Z,54.30
2023-02-19T00:41:52.112Z,54.62
2023-02-19T00:42:52.091Z,54.66
2023-02-19T00:43:52.067Z,54.73
2023-02-19T00:44:52.093Z,54.51
2023-02-19T00:45:52.054Z,54.20
2023-02-19T00:46:52.056Z,54.20
2023-02-19T00:47:52.064Z,54.23
2023-02-19T00:48:52.023Z,54.87
2023-02-19T00:49:52.011Z,54.94
2023-02-19T00:50:51.989Z,53.95
2023-02-19T00:51:51.984Z,54.44
2023-02-19T00:52:51.982Z,54.48
2023-02-19T00:53:51.972Z,54.84
2023-02-19T00:54:51.972Z,54.66
2023-02-19T00:55:51.935Z,54.23
2023-02-19T00:56:51.921Z,54.44
2023-02-19T00:57:51.911Z,54.87
2023-02-19T00:58:51.881Z,54.98
2023-02-19T00:59:51.868Z,54.48
2023-02-19T01:00:51.876Z,54.37
2023-02-19T01:01:51.892Z,55.31
2023-02-19T01:02:51.840Z,54.73
2023-02-19T01:03:51.827Z,55.45
2023-02-19T01:04:51.829Z,55.12
2023-02-19T01:05:51.824Z,55.27
2023-02-19T01:06:51.791Z,55.34
2023-02-19T01:07:51.804Z,55.12
2023-02-19T01:08:51.783Z,55.23
2023-02-19T01:09:51.742Z,55.16
2023-02-19T01:10:51.730Z,55.67
2023-02-19T01:11:51.709Z,55.34
2023-02-19T01:12:51.692Z,55.71
2023-02-19T01:13:51.685Z,56.12
2023-02-19T01:14:51.682Z,55.71
2023-02-19T01:15:51.669Z,55.31
2023-02-19T01:16:51.638Z,55.64
2023-02-19T01:17:51.645Z,55.45
2023-02-19T01:18:51.631Z,56.16
2023-02-19T01:19:51.600Z,55.56
2023-02-19T01:20:51.595Z,55.75
2023-02-19T01:21:51.595Z,56.05
2023-02-19T01:22:51.550Z,56.46
2023-02-19T01:23:51.564Z,56.01
2023-02-19T01:24:51.546Z,55.53
2023-02-19T01:25:51.552Z,56.77
2023-02-19T01:26:51.506Z,56.01
2023-02-19T01:27:51.506Z,55.75
2023-02-19T01:28:51.688Z,55.90
2023-02-19T01:29:51.497Z,56.54
2023-02-19T01:30:51.469Z,56.01
2023-02-19T01:31:51.499Z,56.81
2023-02-19T01:32:51.443Z,56.20
2023-02-19T01:33:51.446Z,56.46
2023-02-19T01:34:51.430Z,56.46
2023-02-19T01:35:51.397Z,56.39
2023-02-19T01:36:51.368Z,56.81
2023-02-19T01:37:51.374Z,57.19
2023-02-19T01:38:51.368Z,56.65
2023-02-19T01:39:51.366Z,56.73
2023-02-19T01:40:51.329Z,57.47
2023-02-19T01:41:51.314Z,56.81
2023-02-19T01:42:51.305Z,56.81
2023-02-19T01:43:51.279Z,57.19
2023-02-19T01:44:51.326Z,57.43
2023-02-19T01:45:51.264Z,56.77
2023-02-19T01:46:51.310Z,56.92
2023-02-19T01:47:51.256Z,57.16
2023-02-19T01:48:51.234Z,57.71
2023-02-19T01:49:51.227Z,57.39
2023-02-19T01:50:51.223Z,57.19
2023-02-19T01:51:51.238Z,57.43
2023-02-19T01:52:51.191Z,57.55
2023-02-19T01:53:51.158Z,57.59
2023-02-19T01:54:51.196Z,57.59
2023-02-19T01:55:51.136Z,57.55
2023-02-19T01:56:51.129Z,58.19
2023-02-19T01:57:51.131Z,57.71
2023-02-19T01:58:51.110Z,57.63
2023-02-19T01:59:51.132Z,57.99
2023-02-19T02:00:51.173Z,58.19
2023-02-19T02:01:51.118Z,58.15
2023-02-19T02:02:51.051Z,58.43
2023-02-19T02:03:51.102Z,58.31
2023-02-19T02:04:51.057Z,58.51
2023-02-19T02:05:51.068Z,58.76
2023-02-19T02:06:51.014Z,58.35
2023-02-19T02:07:50.972Z,59.01
2023-02-19T02:08:50.952Z,58.60
2023-02-19T02:09:50.959Z,59.30
2023-02-19T02:10:50.948Z,58.80
2023-02-19T02:11:50.938Z,58.88
2023-02-19T02:12:50.928Z,58.76
2023-02-19T02:13:50.920Z,59.68
2023-02-19T02:14:50.872Z,59.51
2023-02-19T02:15:50.867Z,59.09
2023-02-19T02:16:50.908Z,59.05
2023-02-19T02:17:50.843Z,59.09
2023-02-19T02:18:50.842Z,59.47
2023-02-19T02:19:50.832Z,59.34
2023-02-19T02:20:50.828Z,60.07
2023-02-19T02:21:50.805Z,59.38
2023-02-19T02:22:50.807Z,59.60
2023-02-19T02:23:50.773Z,59.55
2023-02-19T02:24:50.772Z,59.43
2023-02-19T02:25:50.762Z,59.38
2023-02-19T02:26:50.749Z,59.64
2023-02-19T02:27:50.764Z,59.55
2023-02-19T02:28:50.703Z,59.68
2023-02-19T02:29:50.735Z,59.85
2023-02-19T02:30:50.680Z,59.68
2023-02-19T02:31:50.743Z,60.20
2023-02-19T02:32:50.664Z,59.98
2023-02-19T02:33:50.655Z,59.85
2023-02-19T02:34:50.633Z,60.02
2023-02-19T02:35:50.649Z,59.85
2023-02-19T02:36:50.607Z,59.81
2023-02-19T02:37:50.612Z,60.33
2023-02-19T02:38:50.620Z,59.90
2023-02-19T02:39:50.595Z,59.85
2023-02-19T02:40:50.541Z,60.41
2023-02-19T02:41:50.570Z,59.98
2023-02-19T02:42:50.514Z,59.81
2023-02-19T02:43:50.544Z,59.94
2023-02-19T02:44:50.502Z,60.41
2023-02-19T02:45:50.589Z,60.07
2023-02-19T02:46:50.502Z,60.07
2023-02-19T02:47:50.469Z,60.02
2023-02-19T02:48:50.439Z,60.46
2023-02-19T02:49:50.436Z,60.85
2023-02-19T02:50:50.427Z,61.12
2023-02-19T02:51:50.426Z,60.90
2023-02-19T02:52:50.427Z,60.28
2023-02-19T02:53:50.404Z,60.15
2023-02-19T02:54:50.404Z,60.54
2023-02-19T02:55:50.355Z,61.07
2023-02-19T02:56:50.352Z,60.50
2023-02-19T02:57:50.336Z,60.54
2023-02-19T02:58:50.327Z,60.76
2023-02-19T02:59:50.369Z,60.72
2023-02-19T03:00:50.325Z,60.11
2023-02-19T03:01:50.333Z,60.68
2023-02-19T03:02:50.285Z,60.37
2023-02-19T03:03:50.252Z,60.33
2023-02-19T03:04:50.285Z,60.50
2023-02-19T03:05:50.281Z,60.76
2023-02-19T03:06:50.225Z,61.07
2023-02-19T03:07:50.211Z,61.34
2023-02-19T03:08:50.195Z,62.49
2023-02-19T03:09:50.186Z,62.77
2023-02-19T03:10:50.200Z,62.63
2023-02-19T03:11:50.162Z,62.91
2023-02-19T03:12:50.163Z,63.19
2023-02-19T03:13:50.161Z,63.43
2023-02-19T03:14:50.111Z,64.36
2023-02-19T03:15:50.136Z,63.87
2023-02-19T03:16:50.235Z,64.01
2023-02-19T03:17:50.115Z,64.31
2023-02-19T03:18:50.116Z,64.56
2023-02-19T03:19:50.034Z,64.61
2023-02-19T03:20:50.054Z,64.86
2023-02-19T03:21:50.070Z,65.06
2023-02-19T03:22:50.008Z,65.36
2023-02-19T03:23:49.983Z,65.47
2023-02-19T03:24:50.008Z,65.57
2023-02-19T03:25:49.973Z,65.67
2023-02-19T03:26:49.946Z,65.67
2023-02-19T03:27:49.932Z,66.03
2023-02-19T03:28:49.941Z,66.14
2023-02-19T03:29:49.943Z,65.83
2023-02-19T03:30:49.904Z,66.19
2023-02-19T03:31:49.959Z,66.19
2023-02-19T03:32:49.864Z,66.40
2023-02-19T03:33:49.889Z,66.72
2023-02-19T03:34:49.863Z,66.82
2023-02-19T03:35:49.854Z,66.72
2023-02-19T03:36:49.805Z,67.47
2023-02-19T03:37:49.820Z,67.74
2023-02-19T03:38:49.816Z,67.80
2023-02-19T03:39:49.794Z,68.02
2023-02-19T03:40:49.765Z,68.24
2023-02-19T03:41:49.765Z,68.07
2023-02-19T03:42:49.733Z,68.29
2023-02-19T03:43:49.745Z,68.41
2023-02-19T03:44:49.751Z,68.86
2023-02-19T03:45:49.709Z,69.26
2023-02-19T03:46:49.695Z,69.43
2023-02-19T03:47:49.735Z,69.49
2023-02-19T03:48:49.667Z,69.78
2023-02-19T03:49:49.680Z,70.42
2023-02-19T03:50:49.675Z,70.78
2023-02-19T03:51:49.678Z,71.62
2023-02-19T03:52:49.636Z,72.49
2023-02-19T03:53:49.601Z,73.38
2023-02-19T03:54:49.586Z,74.16
2023-02-19T03:55:49.588Z,75.23
2023-02-19T03:56:49.571Z,76.19
2023-02-19T03:57:49.591Z,77.03
2023-02-19T03:58:49.522Z,77.60
2023-02-19T03:59:49.521Z,78.25
2023-02-19T04:00:49.543Z,78.91
2023-02-19T04:01:49.508Z,79.36
2023-02-19T04:02:49.488Z,79.59
2023-02-19T04:03:49.508Z,79.97
2023-02-19T04:04:49.470Z,80.12
2023-02-19T04:05:49.445Z,80.51
2023-02-19T04:06:49.429Z,80.58
2023-02-19T04:07:49.436Z,80.66
2023-02-19T04:08:49.398Z,80.74
2023-02-19T04:09:49.424Z,81.05
2023-02-19T04:10:49.375Z,81.37
2023-02-19T04:11:49.385Z,81.29
2023-02-19T04:12:49.363Z,82.00
2023-02-19T04:13:49.353Z,82.33
2023-02-19T04:14:49.337Z,82.33
2023-02-19T04:15:49.324Z,82.73
2023-02-19T04:16:49.340Z,82.98
2023-02-19T04:17:49.336Z,83.48
2023-02-19T04:18:49.298Z,83.39
2023-02-19T04:19:49.262Z,83.89
2023-02-19T04:20:49.266Z,84.06
2023-02-19T04:21:49.241Z,84.92
2023-02-19T04:22:49.246Z,85.17
2023-02-19T04:23:49.216Z,86.05
2023-02-19T04:24:49.203Z,86.94
2023-02-19T04:25:49.193Z,87.67
2023-02-19T04:26:49.185Z,88.41
2023-02-19T04:27:49.169Z,89.45
2023-02-19T04:28:49.149Z,89.83
2023-02-19T04:29:49.160Z,90.51
2023-02-19T04:30:49.214Z,91.20
2023-02-19T04:31:49.161Z,91.90
2023-02-19T04:32:49.116Z,91.60
2023-02-19T04:33:49.103Z,92.21
2023-02-19T04:34:49.074Z,92.92
2023-02-19T04:35:49.089Z,92.72
2023-02-19T04:36:49.040Z,92.72
2023-02-19T04:37:49.052Z,92.92
2023-02-19T04:38:49.026Z,93.44
2023-02-19T04:39:49.032Z,93.13
2023-02-19T04:40:49.009Z,93.55
2023-02-19T04:41:49.012Z,93.65
2023-02-19T04:42:48.946Z,93.65
2023-02-19T04:43:48.955Z,94.18
2023-02-19T04:44:48.919Z,94.82
2023-02-19T04:45:48.956Z,95.14
2023-02-19T04:46:48.938Z,95.68
2023-02-19T04:47:48.883Z,93.47
2023-02-19T04:48:48.899Z,95.06
2023-02-19T04:49:48.878Z,94.63
2023-02-19T04:50:48.857Z,95.66
2023-02-19T04:51:48.839Z,95.55
2023-02-19T04:52:48.847Z,95.28
2023-02-19T04:53:48.828Z,95.71
2023-02-19T04:54:48.806Z,95.88
2023-02-19T04:55:48.791Z,95.99
2023-02-19T04:56:48.754Z,96.26
2023-02-19T04:57:48.785Z,96.43
2023-02-19T04:58:48.750Z,96.71
2023-02-19T04:59:48.777Z,96.49
2023-02-19T05:00:48.721Z,96.71
2023-02-19T05:01:48.742Z,97.10
2023-02-19T05:02:48.694Z,97.78
2023-02-19T05:03:48.690Z,97.67
2023-02-19T05:04:48.657Z,98.07
2023-02-19T05:05:48.697Z,98.41
2023-02-19T05:06:48.669Z,98.24
2023-02-19T05:07:48.616Z,97.84
2023-02-19T05:08:48.641Z,98.36
2023-02-19T05:09:48.604Z,98.59
2023-02-19T05:10:48.587Z,98.82
2023-02-19T05:11:48.586Z,98.53
2023-02-19T05:12:48.585Z,98.70
2023-02-19T05:13:48.537Z,99.00
2023-02-19T05:14:48.525Z,99.41
2023-02-19T05:15:48.524Z,99.00
2023-02-19T05:16:48.529Z,98.64
2023-02-19T05:17:48.500Z,99.52
2023-02-19T05:18:48.460Z,99.52
2023-02-19T05:19:48.466Z,99.70
2023-02-19T05:20:48.458Z,99.88
2023-02-19T05:21:48.467Z,99.88
2023-02-19T05:22:48.407Z,100.18
2023-02-19T05:23:48.454Z,100.18
2023-02-19T05:24:48.414Z,99.76
2023-02-19T05:25:48.396Z,99.46
2023-02-19T05:26:48.380Z,99.35
2023-02-19T05:27:48.356Z,98.64
2023-02-19T05:28:48.337Z,99.05
2023-02-19T05:29:48.341Z,99.11
2023-02-19T05:30:48.335Z,98.94
2023-02-19T05:31:48.456Z,98.36
2023-02-19T05:32:48.286Z,97.78
2023-02-19T05:33:48.299Z,98.30
2023-02-19T05:34:48.272Z,98.12
2023-02-19T05:35:48.269Z,97.55
2023-02-19T05:36:48.263Z,97.21
2023-02-19T05:37:48.243Z,97.33
2023-02-19T05:38:48.223Z,96.49
2023-02-19T05:39:48.233Z,96.38
2023-02-19T05:40:48.206Z,96.32
2023-02-19T05:41:48.181Z,95.44
2023-02-19T05:42:48.165Z,95.82
2023-02-19T05:43:48.137Z,94.85
2023-02-19T05:44:48.127Z,94.63
2023-02-19T05:45:48.139Z,94.37
2023-02-19T05:46:48.117Z,95.68
2023-02-19T05:47:48.116Z,93.89
2023-02-19T05:48:48.107Z,95.46
2023-02-19T05:49:48.078Z,95.14
2023-02-19T05:50:48.104Z,94.82
2023-02-19T05:51:48.061Z,94.50
2023-02-19T05:52:48.024Z,94.92
2023-02-19T05:53:48.014Z,94.18
2023-02-19T05:54:47.989Z,93.65
2023-02-19T05:55:47.981Z,93.55
2023-02-19T05:56:48.024Z,93.23
2023-02-19T05:57:47.964Z,93.55
2023-02-19T05:58:47.950Z,92.92
2023-02-19T05:59:47.942Z,91.90
2023-02-19T06:00:47.923Z,91.90
2023-02-19T06:01:47.926Z,91.90
2023-02-19T06:02:47.944Z,91.50
2023-02-19T06:03:47.943Z,91.50
2023-02-19T06:04:47.859Z,91.20
2023-02-19T06:05:47.856Z,91.00
2023-02-19T06:06:47.853Z,91.80
2023-02-19T06:07:47.824Z,91.50
2023-02-19T06:08:47.824Z,91.70
2023-02-19T06:09:47.798Z,92.00
2023-02-19T06:10:47.796Z,92.41
2023-02-19T06:11:47.760Z,92.00
2023-02-19T06:12:47.753Z,91.80
2023-02-19T06:13:47.781Z,92.41
2023-02-19T06:14:47.745Z,91.90
2023-02-19T06:15:47.734Z,92.31
2023-02-19T06:16:47.723Z,92.21
2023-02-19T06:17:47.700Z,92.51
2023-02-19T06:18:47.682Z,91.90
2023-02-19T06:19:47.685Z,92.00
2023-02-19T06:20:47.663Z,91.40
2023-02-19T06:21:47.632Z,91.60
2023-02-19T06:22:47.646Z,91.60
2023-02-19T06:23:47.635Z,91.50
2023-02-19T06:24:47.597Z,91.20
2023-02-19T06:25:47.601Z,91.10
2023-02-19T06:26:47.586Z,90.51
2023-02-19T06:27:47.567Z,90.03
2023-02-19T06:28:47.582Z,90.42
2023-02-19T06:29:47.562Z,89.54
2023-02-19T06:30:47.536Z,89.16
2023-02-19T06:31:47.612Z,89.07
2023-02-19T06:32:47.518Z,88.50
2023-02-19T06:33:47.490Z,87.95
2023-02-19T06:34:47.495Z,87.76
2023-02-19T06:35:47.452Z,87.40
2023-02-19T06:36:47.443Z,86.94
2023-02-19T06:37:47.440Z,87.21
2023-02-19T06:38:47.431Z,86.94
2023-02-19T06:39:47.449Z,86.94
2023-02-19T06:40:47.402Z,85.96
2023-02-19T06:41:47.396Z,86.05
2023-02-19T06:42:47.379Z,85.35
2023-02-19T06:43:47.347Z,85.52
2023-02-19T06:44:47.381Z,85.35
2023-02-19T06:45:47.339Z,85.35
2023-02-19T06:46:47.374Z,85.09
2023-02-19T06:47:47.288Z,85.09
2023-02-19T06:48:47.306Z,84.57
2023-02-19T06:49:47.270Z,84.40
2023-02-19T06:50:47.263Z,84.57
2023-02-19T06:51:47.255Z,84.57
2023-02-19T06:52:47.288Z,84.23
2023-02-19T06:53:47.209Z,84.49
2023-02-19T06:54:47.202Z,84.15
2023-02-19T06:55:47.203Z,83.56
2023-02-19T06:56:47.262Z,83.64
2023-02-19T06:57:47.184Z,83.73
2023-02-19T06:58:47.174Z,83.39
2023-02-19T06:59:47.141Z,83.56
2023-02-19T07:00:47.165Z,83.98
2023-02-19T07:01:47.109Z,83.89
2023-02-19T07:02:47.112Z,83.81
2023-02-19T07:03:47.116Z,83.64
2023-02-19T07:04:47.089Z,83.89
2023-02-19T07:05:47.055Z,84.57
2023-02-19T07:06:47.062Z,84.92
2023-02-19T07:07:47.052Z,84.92
2023-02-19T07:08:47.066Z,85.35
2023-02-19T07:09:47.001Z,85.70
2023-02-19T07:10:46.996Z,85.61
2023-02-19T07:11:46.982Z,85.87
2023-02-19T07:12:47.009Z,85.70
2023-02-19T07:13:46.952Z,86.23
2023-02-19T07:14:46.953Z,86.49
2023-02-19T07:15:46.923Z,86.67
2023-02-19T07:16:46.909Z,86.85
2023-02-19T07:17:46.895Z,86.76
2023-02-19T07:18:46.889Z,87.21
2023-02-19T07:19:46.885Z,87.40
2023-02-19T07:20:46.886Z,87.40
2023-02-19T07:21:46.888Z,87.85
2023-02-19T07:22:46.824Z,88.04
2023-02-19T07:23:46.843Z,88.13
2023-02-19T07:24:47.962Z,88.32
2023-02-19T07:25:46.795Z,88.32
2023-02-19T07:26:46.804Z,88.88
2023-02-19T07:27:46.759Z,89.16
2023-02-19T07:28:46.761Z,89.45
2023-02-19T07:29:46.739Z,89.64
2023-02-19T07:30:46.798Z,90.32
2023-02-19T07:31:46.712Z,90.32
2023-02-19T07:32:46.719Z,90.22
2023-02-19T07:33:46.675Z,90.61
2023-02-19T07:34:46.722Z,91.00
2023-02-19T07:35:46.658Z,90.91
2023-02-19T07:36:46.676Z,91.30
2023-02-19T07:37:46.652Z,91.50
2023-02-19T07:38:46.650Z,91.70
2023-02-19T07:39:46.606Z,91.70
2023-02-19T07:40:46.629Z,92.21
2023-02-19T07:41:46.610Z,92.31
2023-02-19T07:42:46.586Z,92.11
2023-02-19T07:43:46.555Z,92.92
2023-02-19T07:44:46.568Z,93.75
2023-02-19T07:45:46.541Z,94.39
2023-02-19T07:46:46.546Z,95.57
2023-02-19T07:47:46.545Z,93.68
2023-02-19T07:48:46.514Z,95.28
2023-02-19T07:49:46.478Z,96.60
2023-02-19T07:50:46.482Z,97.21
2023-02-19T07:51:46.448Z,98.01
2023-02-19T07:52:46.457Z,99.17
2023-02-19T07:53:46.453Z,99.88
2023-02-19T07:54:46.466Z,99.88
2023-02-19T07:55:46.425Z,100.84
2023-02-19T07:56:46.418Z,101.09
2023-02-19T07:57:46.383Z,101.51
2023-02-19T07:58:46.362Z,102.20
2023-02-19T07:59:46.345Z,102.57
2023-02-19T08:00:46.410Z,103.65
2023-02-19T08:01:46.345Z,104.04
2023-02-19T08:02:46.341Z,103.97
2023-02-19T08:03:48.193Z,104.49
2023-02-19T08:04:46.305Z,105.21
2023-02-19T08:05:46.285Z,105.68
2023-02-19T08:06:46.271Z,106.69
2023-02-19T08:07:46.285Z,107.79
2023-02-19T08:08:46.239Z,108.20
2023-02-19T08:09:46.236Z,108.69
2023-02-19T08:10:46.203Z,109.69
2023-02-19T08:11:46.189Z,110.71
2023-02-19T08:12:46.208Z,111.37
2023-02-19T08:13:46.162Z,112.11
2023-02-19T08:14:46.185Z,112.64
2023-02-19T08:15:46.163Z,113.87
2023-02-19T08:16:46.285Z,115.92
2023-02-19T08:17:46.128Z,115.76
2023-02-19T08:18:46.138Z,118.63
2023-02-19T08:19:46.107Z,119.99
2023-02-19T08:20:46.111Z,121.82
2023-02-19T08:21:46.060Z,123.34
2023-02-19T08:22:46.066Z,126.13
2023-02-19T08:23:46.072Z,128.45
2023-02-19T08:24:46.051Z,129.74
2023-02-19T08:25:46.037Z,132.41
2023-02-19T08:26:46.018Z,133.89
2023-02-19T08:27:46.042Z,135.96
2023-02-19T08:28:45.984Z,137.75
2023-02-19T08:29:45.985Z,138.89
2023-02-19T08:30:46.026Z,141.35
2023-02-19T08:31:46.045Z,144.52
2023-02-19T08:32:45.940Z,147.32
2023-02-19T08:33:45.914Z,149.55
2023-02-19T08:34:45.934Z,150.63
2023-02-19T08:35:45.891Z,151.58
2023-02-19T08:36:45.875Z,152.55
2023-02-19T08:37:45.873Z,155.67
2023-02-19T08:38:45.869Z,157.42
2023-02-19T08:39:45.838Z,162.46
2023-02-19T08:40:45.837Z,167.67
2023-02-19T08:41:45.808Z,172.86
2023-02-19T08:42:45.847Z,179.53
2023-02-19T08:43:45.814Z,189.00
2023-02-19T08:44:45.774Z,203.73
2023-02-19T08:45:45.815Z,219.62
2023-02-19T08:46:45.772Z,238.21
2023-02-19T08:47:45.751Z,252.06
2023-02-19T08:48:45.723Z,274.77
2023-02-19T08:49:45.796Z,298.16
2023-02-19T08:50:45.719Z,320.81
2023-02-19T08:51:45.731Z,340.02
2023-02-19T08:52:45.707Z,352.01
2023-02-19T08:53:45.704Z,357.75
2023-02-19T08:54:45.664Z,366.10
2023-02-19T08:55:45.652Z,368.56
2023-02-19T08:56:45.684Z,383.79
2023-02-19T08:57:45.612Z,403.45
2023-02-19T08:58:45.630Z,409.13
2023-02-19T08:59:45.644Z,417.55
2023-02-19T09:00:45.591Z,424.16
2023-02-19T09:01:45.588Z,439.19
2023-02-19T09:02:45.533Z,458.13
2023-02-19T09:03:45.515Z,472.02
2023-02-19T09:04:45.516Z,487.14
2023-02-19T09:05:45.495Z,504.01
2023-02-19T09:06:45.500Z,518.86
2023-02-19T09:07:45.467Z,543.73
2023-02-19T09:08:45.473Z,566.27
2023-02-19T09:09:45.450Z,572.08
2023-02-19T09:10:45.440Z,567.71
2023-02-19T09:11:46.936Z,568.67
2023-02-19T09:12:45.395Z,576.02
2023-02-19T09:13:45.417Z,599.76
2023-02-19T09:14:45.388Z,616.89
2023-02-19T09:15:45.400Z,645.45
2023-02-19T09:16:45.349Z,670.67
2023-02-19T09:17:45.360Z,683.69
2023-02-19T09:18:45.409Z,697.95
2023-02-19T09:19:45.319Z,713.57
2023-02-19T09:20:45.343Z,728.32
2023-02-19T09:21:45.393Z,745.36
2023-02-19T09:22:45.293Z,751.54
2023-02-19T09:23:45.473Z,747.77
2023-02-19T09:24:45.296Z,755.78
2023-02-19T09:25:45.234Z,750.70
2023-02-19T09:26:45.225Z,755.35
2023-02-19T09:27:45.208Z,759.64
2023-02-19T09:28:45.252Z,755.78
2023-02-19T09:29:45.175Z,753.66
2023-02-19T09:30:45.192Z,760.93
2023-02-19T09:31:45.280Z,759.64
2023-02-19T09:32:45.204Z,758.78
2023-02-19T09:33:45.215Z,744.53
2023-02-19T09:34:45.148Z,746.93
2023-02-19T09:35:45.122Z,729.12
2023-02-19T09:36:45.141Z,720.48
2023-02-19T09:37:45.098Z,721.26
2023-02-19T09:38:45.179Z,719.71
2023-02-19T09:39:45.058Z,739.59
2023-02-19T09:40:45.071Z,767.03
2023-02-19T09:41:45.034Z,780.89
2023-02-19T09:42:45.043Z,800.96
2023-02-19T09:43:45.057Z,813.60
2023-02-19T09:44:45.015Z,822.09
2023-02-19T09:45:44.989Z,833.33
2023-02-19T09:46:44.969Z,817.57
2023-02-19T09:47:44.972Z,811.14
2023-02-19T09:48:44.938Z,807.72
2023-02-19T09:49:44.932Z,821.58
2023-02-19T09:50:44.943Z,818.57
2023-02-19T09:51:44.917Z,834.89
2023-02-19T09:52:44.869Z,843.83
2023-02-19T09:53:44.874Z,842.24
2023-02-19T09:54:44.848Z,851.88
2023-02-19T09:55:44.838Z,849.71
2023-02-19T09:56:44.862Z,843.83
2023-02-19T09:57:44.823Z,842.24
2023-02-19T09:58:44.803Z,844.89
2023-02-19T09:59:44.773Z,870.70
2023-02-19T10:00:44.767Z,894.53
2023-02-19T10:01:44.776Z,924.14
2023-02-19T10:02:44.751Z,932.50
2023-02-19T10:03:44.767Z,951.70
2023-02-19T10:04:44.757Z,949.01
2023-02-19T10:05:44.733Z,958.51
2023-02-19T10:06:44.705Z,1009.04
2023-02-19T10:07:44.706Z,1043.61
2023-02-19T10:08:44.790Z,1058.45
2023-02-19T10:09:44.646Z,1073.72
2023-02-19T10:10:44.664Z,1079.77
2023-02-19T10:11:44.619Z,1103.79
2023-02-19T10:12:44.628Z,1145.30
2023-02-19T10:13:44.612Z,1181.66
2023-02-19T10:14:44.596Z,1206.12
2023-02-19T10:15:44.720Z,1213.77
2023-02-19T10:16:44.572Z,1211.57
2023-02-19T10:17:44.550Z,1221.51
2023-02-19T10:18:44.526Z,1215.97
2023-02-19T10:19:44.518Z,1209.39
2023-02-19T10:20:44.531Z,1194.30
2023-02-19T10:21:44.491Z,1184.79
2023-02-19T10:22:44.487Z,1184.79
2023-02-19T10:23:44.470Z,1201.79
2023-02-19T10:24:44.461Z,1230.49
2023-02-19T10:25:44.429Z,1264.15
2023-02-19T10:26:44.410Z,1287.22
2023-02-19T10:27:44.404Z,1300.97
2023-02-19T10:28:44.404Z,1298.45
2023-02-19T10:29:44.401Z,1287.22
2023-02-19T10:30:44.363Z,1281.07
2023-02-19T10:31:44.468Z,1288.46
2023-02-19T10:32:44.392Z,1294.69
2023-02-19T10:33:44.345Z,1303.50
2023-02-19T10:34:44.396Z,1332.01
2023-02-19T10:35:44.340Z,1349.45
2023-02-19T10:36:44.295Z,1360.41
2023-02-19T10:37:44.332Z,1370.14
2023-02-19T10:38:44.260Z,1365.95
2023-02-19T10:39:44.250Z,1359.03
2023-02-19T10:40:44.252Z,1388.60
2023-02-19T10:41:44.513Z,1413.50
2023-02-19T10:42:44.238Z,1461.29
2023-02-19T10:43:44.214Z,1498.88
2023-02-19T10:44:44.190Z,1516.69
2023-02-19T10:45:44.195Z,1540.23
2023-02-19T10:46:44.220Z,1544.67
2023-02-19T10:47:44.144Z,1548.24
2023-02-19T10:48:44.122Z,1564.51
2023-02-19T10:49:44.181Z,1551.82
2023-02-19T10:50:44.227Z,1527.06
2023-02-19T10:51:44.092Z,1519.27
2023-02-19T10:52:44.101Z,1514.12
2023-02-19T10:53:44.074Z,1535.82
2023-02-19T10:54:44.064Z,1554.52
2023-02-19T10:55:44.047Z,1578.33
2023-02-19T10:56:44.015Z,1586.74
2023-02-19T10:57:44.027Z,1607.68
2023-02-19T10:58:43.987Z,1632.16
2023-02-19T10:59:44.011Z,1639.14
2023-02-19T11:00:43.993Z,1679.20
2023-02-19T11:01:44.007Z,1721.26
2023-02-19T11:02:43.976Z,1749.35
2023-02-19T11:03:43.954Z,1819.42
2023-02-19T11:04:43.995Z,1844.46
2023-02-19T11:05:43.902Z,1844.46
2023-02-19T11:06:43.884Z,1863.70
2023-02-19T11:07:43.875Z,1878.06
2023-02-19T11:08:43.880Z,1912.92
2023-02-19T11:09:43.843Z,1966.25
2023-02-19T11:10:43.848Z,1970.59
2023-02-19T11:11:43.836Z,2058.37
2023-02-19T11:12:43.801Z,2100.31
2023-02-19T11:13:43.802Z,2147.44
2023-02-19T11:14:43.793Z,2213.05
2023-02-19T11:15:43.797Z,2238.93
2023-02-19T11:16:43.800Z,2233.33
2023-02-19T11:17:43.774Z,2278.91
2023-02-19T11:18:43.750Z,2310.34
2023-02-19T11:19:43.727Z,2292.56
2023-02-19T11:20:43.731Z,2298.46
2023-02-19T11:21:43.694Z,2282.79
2023-02-19T11:22:43.710Z,2224.07
2023-02-19T11:23:43.676Z,2227.76
2023-02-19T11:24:43.646Z,2250.21
2023-02-19T11:25:43.656Z,2269.26
2023-02-19T11:26:43.629Z,2302.41
2023-02-19T11:27:43.644Z,2271.19
2023-02-19T11:28:43.596Z,2273.11
2023-02-19T11:29:43.587Z,2259.70
2023-02-19T11:30:43.601Z,2244.56
2023-02-19T11:31:43.656Z,2244.56
2023-02-19T11:32:43.574Z,2227.76
2023-02-19T11:33:43.529Z,2227.76
2023-02-19T11:34:43.573Z,2280.85
2023-02-19T11:35:43.533Z,2304.39
2023-02-19T11:36:43.495Z,2355.01
2023-02-19T11:37:43.506Z,2363.31
2023-02-19T11:38:43.492Z,2369.58
2023-02-19T11:39:43.486Z,2352.94
2023-02-19T11:40:43.439Z,2348.82
2023-02-19T11:41:43.449Z,2357.08
2023-02-19T11:42:43.427Z,2375.89
2023-02-19T11:43:43.417Z,2377.99
2023-02-19T11:44:43.412Z,2380.11
2023-02-19T11:45:43.390Z,2380.11
2023-02-19T11:46:43.450Z,2382.22
2023-02-19T11:47:43.357Z,2405.75
2023-02-19T11:48:43.361Z,2384.34
2023-02-19T11:49:43.354Z,2395.00
2023-02-19T11:50:43.326Z,2380.11
2023-02-19T11:51:44.183Z,2401.43
2023-02-19T11:52:43.311Z,2449.73
2023-02-19T11:53:43.270Z,2467.77
2023-02-19T11:54:43.278Z,2523.54
2023-02-19T11:55:43.267Z,2576.92
2023-02-19T11:56:43.245Z,2589.37
2023-02-19T11:57:43.281Z,2604.47
2023-02-19T11:58:43.219Z,2569.51
2023-02-19T11:59:43.222Z,2547.53
2023-02-19T12:00:43.190Z,2540.28
2023-02-19T12:01:43.185Z,2476.89
2023-02-19T12:02:43.169Z,2456.46
2023-02-19T12:03:43.155Z,2440.80
2023-02-19T12:04:43.136Z,2458.72
2023-02-19T12:05:43.111Z,2451.97
2023-02-19T12:06:43.106Z,2507.02
2023-02-19T12:07:43.128Z,2518.80
2023-02-19T12:08:43.081Z,2535.48
2023-02-19T12:09:43.083Z,2562.14
2023-02-19T12:10:43.041Z,2549.95
2023-02-19T12:11:43.069Z,2540.28
2023-02-19T12:12:43.018Z,2567.05
2023-02-19T12:13:43.031Z,2637.79
2023-02-19T12:14:43.007Z,2637.79
2023-02-19T12:15:42.980Z,2658.73
2023-02-19T12:16:43.071Z,2653.47
2023-02-19T12:17:42.973Z,2701.61
2023-02-19T12:18:42.950Z,2696.18
2023-02-19T12:19:42.954Z,2780.08
2023-02-19T12:20:42.921Z,2740.29
2023-02-19T12:21:42.904Z,2734.69
2023-02-19T12:22:42.904Z,2748.72
2023-02-19T12:23:42.924Z,2701.61
2023-02-19T12:24:42.867Z,2693.47
2023-02-19T12:25:42.855Z,2671.98
2023-02-19T12:26:42.847Z,2656.09
2023-02-19T12:27:42.860Z,2658.73
2023-02-19T12:28:42.821Z,2645.61
2023-02-19T12:29:42.839Z,2650.84
2023-02-19T12:30:42.822Z,2640.39
2023-02-19T12:31:42.841Z,2604.47
2023-02-19T12:32:42.773Z,2599.42
2023-02-19T12:33:42.762Z,2576.92
2023-02-19T12:34:42.764Z,2574.45
2023-02-19T12:35:42.777Z,2601.94
2023-02-19T12:36:42.732Z,2617.19
2023-02-19T12:37:42.713Z,2594.39
2023-02-19T12:38:42.691Z,2576.92